createdAt,value
2023-03-13T00:01:21.940Z,2.03
2023-03-13T00:03:50.522Z,2.04
2023-03-13T00:06:19.431Z,2.05
2023-03-13T00:08:48.111Z,2.06
2023-03-13T00:11:16.682Z,2.07
2023-03-13T00:13:45.362Z,2.10
2023-03-13T00:16:16.112Z,2.11
2023-03-13T00:18:49.073Z,2.12
2023-03-13T00:21:19.013Z,2.14
2023-03-13T00:23:47.565Z,2.16
2023-03-13T00:26:21.620Z,2.16
2023-03-13T00:28:51.408Z,2.17
2023-03-13T00:31:25.125Z,2.17
2023-03-13T00:33:55.801Z,2.19
2023-03-13T00:36:28.213Z,2.20
2023-03-13T00:38:58.651Z,2.19
2023-03-13T00:41:29.446Z,2.09
2023-03-13T00:43:58.056Z,2.14
2023-03-13T00:46:28.791Z,2.10
2023-03-13T00:48:58.139Z,2.06
2023-03-13T00:51:27.586Z,2.03
2023-03-13T00:53:57.403Z,1.99
2023-03-13T00:56:26.275Z,1.98
2023-03-13T00:58:54.676Z,1.95
2023-03-13T01:01:28.494Z,1.93
2023-03-13T01:03:59.226Z,1.92
2023-03-13T01:06:30.057Z,1.90
2023-03-13T01:09:00.432Z,1.91
2023-03-13T01:11:31.498Z,1.91
2023-03-13T01:14:02.082Z,1.93
2023-03-13T01:16:32.274Z,1.97
2023-03-13T01:19:03.356Z,2.02
2023-03-13T01:21:32.478Z,2.07
2023-03-13T01:24:01.623Z,2.12
2023-03-13T01:26:30.304Z,2.15
2023-03-13T01:28:58.902Z,2.17
2023-03-13T01:31:33.360Z,2.19
2023-03-13T01:34:04.318Z,2.17
2023-03-13T01:36:35.711Z,2.11
2023-03-13T01:39:05.293Z,2.05
2023-03-13T01:41:34.048Z,1.98
2023-03-13T01:44:02.577Z,1.95
2023-03-13T01:46:40.397Z,1.93
2023-03-13T01:49:35.409Z,1.94
2023-03-13T01:52:26.686Z,1.97
2023-03-13T01:55:09.340Z,2.00
2023-03-13T01:57:43.897Z,2.08
2023-03-13T02:00:17.773Z,2.12
2023-03-13T02:02:52.638Z,2.16
2023-03-13T02:05:24.324Z,2.18
2023-03-13T02:08:28.019Z,2.19
2023-03-13T02:11:08.068Z,2.20
2023-03-13T02:13:36.628Z,2.16
2023-03-13T02:16:06.589Z,2.15
2023-03-13T02:18:36.991Z,2.12
2023-03-13T02:21:42.438Z,2.09
2023-03-13T02:24:32.741Z,2.05
2023-03-13T02:27:01.312Z,1.99
2023-03-13T02:29:29.906Z,1.95
2023-03-13T02:31:58.685Z,1.90
2023-03-13T02:34:32.617Z,1.87
2023-03-13T02:37:02.951Z,1.81
2023-03-13T02:39:32.863Z,1.74
2023-03-13T02:42:02.334Z,1.68
2023-03-13T02:44:31.130Z,1.67
2023-03-13T02:46:59.874Z,1.66
2023-03-13T02:49:30.313Z,1.65
2023-03-13T02:52:12.241Z,1.60
2023-03-13T02:54:44.933Z,1.53
2023-03-13T02:57:13.909Z,1.47
2023-03-13T02:59:42.698Z,1.42
2023-03-13T03:02:11.207Z,1.36
2023-03-13T03:04:40.274Z,1.30
2023-03-13T03:07:09.285Z,1.25
2023-03-13T03:09:38.363Z,1.17
2023-03-13T03:12:10.637Z,1.09
2023-03-13T03:14:39.175Z,1.03
2023-03-13T03:17:08.145Z,1.00
2023-03-13T03:19:36.693Z,0.97
2023-03-13T03:22:05.300Z,0.95
2023-03-13T03:24:34.287Z,0.95
2023-03-13T03:27:02.850Z,0.97
2023-03-13T03:29:37.373Z,0.99
2023-03-13T03:32:06.479Z,1.01
2023-03-13T03:34:34.956Z,1.03
2023-03-13T03:37:03.933Z,1.03
2023-03-13T03:39:32.652Z,1.05
2023-03-13T03:42:01.711Z,1.04
2023-03-13T03:44:30.397Z,1.06
2023-03-13T03:47:00.556Z,1.08
2023-03-13T03:49:31.593Z,1.11
2023-03-13T03:52:00.272Z,1.13
2023-03-13T03:54:32.831Z,1.14
2023-03-13T03:57:01.516Z,1.12
2023-03-13T03:59:30.094Z,1.09
2023-03-13T04:02:01.166Z,1.08
2023-03-13T04:04:31.255Z,1.04
2023-03-13T04:07:12.430Z,1.01
2023-03-13T04:09:42.042Z,0.94
2023-03-13T04:12:16.661Z,0.90
2023-03-13T04:14:47.303Z,0.88
2023-03-13T04:17:17.005Z,0.84
2023-03-13T04:19:47.669Z,0.75
2023-03-13T04:22:16.327Z,0.72
2023-03-13T04:24:49.821Z,0.71
2023-03-13T04:27:19.563Z,0.64
2023-03-13T04:29:49.035Z,0.38
2023-03-13T04:32:39.878Z,0.28
2023-03-13T04:35:26.909Z,0.32
2023-03-13T04:38:13.050Z,0.51
2023-03-13T04:41:01.667Z,0.68
2023-03-13T04:43:46.473Z,0.83
2023-03-13T04:46:35.311Z,0.85
2023-03-13T04:49:16.352Z,0.90
2023-03-13T04:51:54.717Z,0.93
2023-03-13T04:54:51.303Z,1.00
2023-03-13T04:57:51.809Z,1.02
2023-03-13T05:00:41.353Z,1.01
2023-03-13T05:03:22.968Z,1.09
2023-03-13T05:06:02.500Z,1.22
2023-03-13T05:08:57.025Z,1.37
2023-03-13T05:12:10.497Z,1.49
2023-03-13T05:15:01.780Z,1.65
2023-03-13T05:18:08.337Z,1.80
2023-03-13T05:21:03.674Z,1.88
2023-03-13T05:23:51.370Z,1.96
2023-03-13T05:26:47.333Z,2.02
2023-03-13T05:29:35.598Z,2.07
2023-03-13T05:32:33.891Z,2.09
2023-03-13T05:35:19.068Z,2.11
2023-03-13T05:38:02.551Z,2.12
2023-03-13T05:40:41.351Z,2.10
2023-03-13T05:43:35.931Z,2.10
2023-03-13T05:46:09.756Z,2.08
2023-03-13T05:48:50.728Z,2.10
2023-03-13T05:51:34.407Z,2.10
2023-03-13T05:54:21.959Z,2.12
2023-03-13T05:56:52.853Z,2.11
2023-03-13T05:59:47.541Z,2.20
2023-03-13T06:02:36.205Z,2.31
2023-03-13T06:05:08.088Z,2.44
2023-03-13T06:07:37.324Z,2.57
2023-03-13T06:10:06.149Z,2.74
2023-03-13T06:12:35.771Z,2.90
2023-03-13T06:15:07.100Z,3.05
2023-03-13T06:17:54.041Z,3.20
2023-03-13T06:20:22.896Z,3.26
2023-03-13T06:22:51.689Z,3.34
2023-03-13T06:25:22.765Z,3.34
2023-03-13T06:27:51.694Z,3.33
2023-03-13T06:30:20.204Z,3.38
2023-03-13T06:32:50.673Z,3.41
2023-03-13T06:35:19.457Z,3.39
2023-03-13T06:37:47.830Z,3.41
2023-03-13T06:40:17.740Z,3.35
2023-03-13T06:42:46.378Z,3.37
2023-03-13T06:45:14.969Z,3.32
2023-03-13T06:47:43.620Z,3.36
2023-03-13T06:50:12.044Z,3.41
2023-03-13T06:52:44.113Z,3.48
2023-03-13T06:55:13.098Z,3.59
2023-03-13T06:57:41.799Z,3.75
2023-03-13T07:00:11.916Z,3.90
2023-03-13T07:02:40.365Z,4.06
2023-03-13T07:05:09.557Z,4.19
2023-03-13T07:07:38.053Z,4.34
2023-03-13T07:10:07.975Z,4.47
2023-03-13T07:12:37.656Z,4.58
2023-03-13T07:15:07.268Z,4.61
2023-03-13T07:17:36.151Z,4.59
2023-03-13T07:20:05.838Z,4.59
2023-03-13T07:22:34.740Z,4.58
2023-03-13T07:25:05.059Z,4.59
2023-03-13T07:27:33.985Z,4.53
2023-03-13T07:30:02.684Z,4.48
2023-03-13T07:32:33.333Z,4.43
2023-03-13T07:35:03.954Z,4.42
2023-03-13T07:37:32.462Z,4.44
2023-03-13T07:40:02.239Z,4.47
2023-03-13T07:42:30.750Z,4.58
2023-03-13T07:45:01.901Z,4.65
2023-03-13T07:47:30.621Z,4.76
2023-03-13T07:49:59.702Z,4.82
2023-03-13T07:52:29.072Z,4.93
2023-03-13T07:54:58.922Z,5.06
2023-03-13T07:57:27.661Z,5.18
2023-03-13T07:59:56.201Z,5.24
2023-03-13T08:02:24.865Z,5.36
2023-03-13T08:04:53.857Z,5.45
2023-03-13T08:07:22.526Z,5.53
2023-03-13T08:09:51.197Z,5.60
2023-03-13T08:12:20.747Z,5.66
2023-03-13T08:14:51.749Z,5.74
2023-03-13T08:17:20.432Z,5.83
2023-03-13T08:19:48.856Z,5.95
2023-03-13T08:22:17.602Z,6.02
2023-03-13T08:24:46.406Z,6.08
2023-03-13T08:27:15.538Z,6.13
2023-03-13T08:29:46.382Z,6.22
2023-03-13T08:32:15.014Z,6.28
2023-03-13T08:34:44.032Z,6.34
2023-03-13T08:37:15.981Z,6.40
2023-03-13T08:39:45.756Z,6.46
2023-03-13T08:42:14.710Z,6.53
2023-03-13T08:44:43.204Z,6.62
2023-03-13T08:47:11.921Z,6.68
2023-03-13T08:49:41.305Z,6.73
2023-03-13T08:52:10.279Z,6.79
2023-03-13T08:54:38.988Z,6.81
2023-03-13T08:57:07.512Z,6.85
2023-03-13T08:59:36.642Z,6.90
2023-03-13T09:02:05.809Z,6.95
2023-03-13T09:04:34.306Z,7.01
2023-03-13T09:07:03.050Z,7.11
2023-03-13T09:09:31.529Z,7.18
2023-03-13T09:12:00.063Z,7.28
2023-03-13T09:14:28.546Z,7.37
2023-03-13T09:16:58.045Z,7.52
2023-03-13T09:19:26.470Z,7.59
2023-03-13T09:21:55.247Z,7.66
2023-03-13T09:24:23.924Z,7.73
2023-03-13T09:27:00.946Z,7.79
2023-03-13T09:29:30.346Z,7.83
2023-03-13T09:31:58.985Z,7.83
2023-03-13T09:34:28.425Z,7.96
2023-03-13T09:36:57.209Z,8.05
2023-03-13T09:39:28.422Z,8.15
2023-03-13T09:42:34.129Z,8.22
2023-03-13T09:45:12.714Z,8.25
2023-03-13T09:47:58.874Z,8.27
2023-03-13T09:50:41.496Z,8.32
2023-03-13T09:53:24.617Z,8.37
2023-03-13T09:55:53.438Z,8.44
2023-03-13T09:58:24.970Z,8.54
2023-03-13T10:01:05.405Z,8.58
2023-03-13T10:03:44.934Z,8.65
2023-03-13T10:06:25.930Z,8.73
2023-03-13T10:09:01.419Z,8.82
2023-03-13T10:11:37.556Z,8.89
2023-03-13T10:14:17.612Z,8.99
2023-03-13T10:17:37.295Z,9.06
2023-03-13T10:20:28.184Z,9.17
2023-03-13T10:22:57.114Z,9.25
2023-03-13T10:25:31.083Z,9.30
2023-03-13T10:28:04.916Z,9.38
2023-03-13T10:30:36.854Z,9.38
2023-03-13T10:33:07.509Z,9.46
2023-03-13T10:35:41.402Z,9.50
2023-03-13T10:38:15.086Z,9.55
2023-03-13T10:40:47.774Z,9.59
2023-03-13T10:43:22.495Z,9.60
2023-03-13T10:45:54.180Z,9.64
2023-03-13T10:48:29.870Z,9.69
2023-03-13T10:51:02.422Z,9.74
2023-03-13T10:53:31.456Z,9.84
2023-03-13T10:56:12.383Z,9.91
2023-03-13T10:58:44.754Z,9.99
2023-03-13T11:01:24.880Z,10.03
2023-03-13T11:03:55.975Z,10.02
2023-03-13T11:06:30.684Z,10.07
2023-03-13T11:09:16.995Z,10.10
2023-03-13T11:11:56.139Z,10.12
2023-03-13T11:14:26.372Z,10.13
2023-03-13T11:17:00.109Z,10.23
2023-03-13T11:19:53.669Z,10.24
2023-03-13T11:22:31.849Z,10.25
2023-03-13T11:25:17.854Z,10.30
2023-03-13T11:28:09.962Z,10.30
2023-03-13T11:30:44.598Z,10.31
2023-03-13T11:33:24.838Z,10.25
2023-03-13T11:36:19.221Z,10.19
2023-03-13T11:39:04.558Z,10.13
2023-03-13T11:41:52.156Z,10.08
2023-03-13T11:44:30.934Z,10.09
2023-03-13T11:47:18.856Z,10.08
2023-03-13T11:49:58.908Z,10.09
2023-03-13T11:52:48.734Z,10.14
2023-03-13T11:55:42.283Z,10.15
2023-03-13T11:58:32.538Z,10.16
2023-03-13T12:01:05.555Z,10.16
2023-03-13T12:03:39.819Z,10.19
2023-03-13T12:06:27.977Z,10.24
2023-03-13T12:09:16.482Z,10.27
2023-03-13T12:12:07.145Z,10.27
2023-03-13T12:14:39.704Z,10.26
2023-03-13T12:17:16.972Z,10.29
2023-03-13T12:19:54.306Z,10.32
2023-03-13T12:22:43.804Z,10.36
2023-03-13T12:25:23.473Z,10.38
2023-03-13T12:28:29.437Z,10.40
2023-03-13T12:31:22.156Z,10.41
2023-03-13T12:34:22.797Z,10.39
2023-03-13T12:37:09.297Z,10.46
2023-03-13T12:40:00.972Z,10.49
2023-03-13T12:42:59.826Z,10.57
2023-03-13T12:45:30.112Z,10.61
2023-03-13T12:47:58.813Z,10.59
2023-03-13T12:50:51.881Z,10.65
2023-03-13T12:54:05.124Z,10.71
2023-03-13T12:56:55.163Z,10.78
2023-03-13T12:59:49.983Z,10.86
2023-03-13T13:02:24.833Z,10.87
2023-03-13T13:04:55.426Z,11.03
2023-03-13T13:07:35.949Z,11.12
2023-03-13T13:10:10.711Z,11.20
2023-03-13T13:12:41.160Z,11.28
2023-03-13T13:15:29.529Z,11.36
2023-03-13T13:18:03.382Z,11.46
2023-03-13T13:20:41.162Z,11.50
2023-03-13T13:23:19.107Z,11.64
2023-03-13T13:25:49.099Z,11.72
2023-03-13T13:28:19.515Z,11.78
2023-03-13T13:30:55.654Z,11.95
2023-03-13T13:33:31.329Z,12.12
2023-03-13T13:36:08.874Z,12.28
2023-03-13T13:38:47.846Z,12.43
2023-03-13T13:41:17.738Z,12.59
2023-03-13T13:43:51.371Z,12.68
2023-03-13T13:46:24.849Z,12.75
2023-03-13T13:49:05.362Z,12.81
2023-03-13T13:51:43.101Z,12.93
2023-03-13T13:54:54.066Z,13.06
2023-03-13T13:57:30.093Z,13.20
2023-03-13T14:00:21.133Z,13.29
2023-03-13T14:02:54.962Z,13.31
2023-03-13T14:05:33.839Z,13.24
2023-03-13T14:08:14.428Z,13.11
2023-03-13T14:10:51.104Z,12.96
2023-03-13T14:13:21.663Z,12.76
2023-03-13T14:15:54.114Z,12.61
2023-03-13T14:18:28.758Z,12.41
2023-03-13T14:21:05.382Z,12.27
2023-03-13T14:23:43.017Z,12.13
2023-03-13T14:26:18.251Z,12.01
2023-03-13T14:28:50.885Z,11.90
2023-03-13T14:31:55.838Z,11.81
2023-03-13T14:34:25.166Z,11.73
2023-03-13T14:37:07.357Z,11.68
2023-03-13T14:39:49.424Z,11.60
2023-03-13T14:42:19.435Z,11.57
2023-03-13T14:44:50.498Z,11.53
2023-03-13T14:47:27.305Z,11.49
2023-03-13T14:50:00.931Z,11.42
2023-03-13T14:52:32.249Z,11.32
2023-03-13T14:55:04.712Z,11.31
2023-03-13T14:57:36.017Z,11.25
2023-03-13T15:00:34.330Z,11.21
2023-03-13T15:03:19.048Z,11.16
2023-03-13T15:06:08.962Z,11.12
2023-03-13T15:08:41.961Z,11.04
2023-03-13T15:11:56.867Z,11.03
2023-03-13T15:14:39.456Z,10.95
2023-03-13T15:17:25.681Z,10.92
2023-03-13T15:19:58.689Z,10.89
2023-03-13T15:22:32.355Z,10.83
2023-03-13T15:25:08.571Z,10.79
2023-03-13T15:27:37.071Z,10.78
2023-03-13T15:30:06.082Z,10.74
2023-03-13T15:32:37.011Z,10.69
2023-03-13T15:35:28.258Z,10.65
2023-03-13T15:37:58.201Z,10.58
2023-03-13T15:40:27.921Z,10.56
2023-03-13T15:42:56.336Z,10.49
2023-03-13T15:45:24.685Z,10.47
2023-03-13T15:47:53.675Z,10.44
2023-03-13T15:50:29.974Z,10.42
2023-03-13T15:52:59.078Z,10.39
2023-03-13T15:55:29.134Z,10.30
2023-03-13T15:57:57.807Z,10.28
2023-03-13T16:00:27.147Z,10.25
2023-03-13T16:02:55.744Z,10.20
2023-03-13T16:05:24.178Z,10.12
2023-03-13T16:07:52.680Z,10.10
2023-03-13T16:10:25.663Z,10.07
2023-03-13T16:12:55.046Z,10.02
2023-03-13T16:15:23.432Z,9.96
2023-03-13T16:17:52.110Z,9.89
2023-03-13T16:20:22.513Z,9.85
2023-03-13T16:22:53.420Z,9.81
2023-03-13T16:25:23.080Z,9.77
2023-03-13T16:27:53.728Z,9.70
2023-03-13T16:30:28.167Z,9.62
2023-03-13T16:32:56.783Z,9.56
2023-03-13T16:35:26.940Z,9.50
2023-03-13T16:37:56.920Z,9.46
2023-03-13T16:40:27.827Z,9.39
2023-03-13T16:42:56.144Z,9.36
2023-03-13T16:45:24.602Z,9.31
2023-03-13T16:47:53.887Z,9.25
2023-03-13T16:50:37.144Z,9.23
2023-03-13T16:53:05.575Z,9.20
2023-03-13T16:55:37.051Z,9.17
2023-03-13T16:58:06.193Z,9.13
2023-03-13T17:00:34.930Z,9.10
2023-03-13T17:03:03.529Z,9.07
2023-03-13T17:05:32.249Z,8.99
2023-03-13T17:08:01.028Z,8.99
2023-03-13T17:10:31.894Z,8.95
2023-03-13T17:13:00.849Z,8.91
2023-03-13T17:15:29.282Z,8.88
2023-03-13T17:17:57.866Z,8.87
2023-03-13T17:20:28.684Z,8.84
2023-03-13T17:22:57.237Z,8.81
2023-03-13T17:25:25.816Z,8.78
2023-03-13T17:27:54.644Z,8.74
2023-03-13T17:30:25.925Z,8.76
2023-03-13T17:32:54.905Z,8.76
2023-03-13T17:35:24.300Z,8.74
2023-03-13T17:37:53.178Z,8.71
2023-03-13T17:40:28.406Z,8.67
2023-03-13T17:42:57.501Z,8.65
2023-03-13T17:45:25.888Z,8.63
2023-03-13T17:47:54.730Z,8.61
2023-03-13T17:50:29.362Z,8.56
2023-03-13T17:52:57.969Z,8.56
2023-03-13T17:55:26.344Z,8.53
2023-03-13T17:57:54.781Z,8.52
2023-03-13T18:00:26.717Z,8.49
2023-03-13T18:02:55.383Z,8.46
2023-03-13T18:05:24.009Z,8.42
2023-03-13T18:07:55.356Z,8.42
2023-03-13T18:10:26.393Z,8.39
2023-03-13T18:12:55.276Z,8.33
2023-03-13T18:15:25.960Z,8.37
2023-03-13T18:17:54.844Z,8.37
2023-03-13T18:20:27.009Z,8.38
2023-03-13T18:23:00.886Z,8.33
2023-03-13T18:25:30.132Z,8.35
2023-03-13T18:27:58.618Z,8.32
2023-03-13T18:30:28.024Z,8.35
2023-03-13T18:32:56.433Z,8.36
2023-03-13T18:35:25.502Z,8.36
2023-03-13T18:37:53.835Z,8.35
2023-03-13T18:40:26.426Z,8.34
2023-03-13T18:42:55.447Z,8.32
2023-03-13T18:45:25.378Z,8.34
2023-03-13T18:47:54.448Z,8.33
2023-03-13T18:50:30.186Z,8.31
2023-03-13T18:53:00.193Z,8.28
2023-03-13T18:55:30.375Z,8.32
2023-03-13T18:57:59.383Z,8.30
2023-03-13T19:00:30.781Z,8.30
2023-03-13T19:02:59.335Z,8.26
2023-03-13T19:05:27.820Z,8.23
2023-03-13T19:07:56.261Z,8.21
2023-03-13T19:10:27.230Z,8.20
2023-03-13T19:12:56.229Z,8.17
2023-03-13T19:15:29.226Z,8.14
2023-03-13T19:18:02.596Z,8.14
2023-03-13T19:20:31.678Z,8.11
2023-03-13T19:23:01.042Z,8.08
2023-03-13T19:25:29.902Z,8.06
2023-03-13T19:27:58.767Z,8.02
2023-03-13T19:30:27.663Z,7.94
2023-03-13T19:32:56.177Z,7.96
2023-03-13T19:35:24.696Z,7.93
2023-03-13T19:37:53.264Z,7.90
2023-03-13T19:40:28.846Z,7.86
2023-03-13T19:42:57.517Z,7.88
2023-03-13T19:45:26.795Z,7.84
2023-03-13T19:47:55.322Z,7.80
2023-03-13T19:50:27.894Z,7.76
2023-03-13T19:52:56.288Z,7.73
2023-03-13T19:55:24.782Z,7.71
2023-03-13T19:57:53.250Z,7.71
2023-03-13T20:00:24.351Z,7.71
2023-03-13T20:02:55.321Z,7.70
2023-03-13T20:05:27.345Z,7.67
2023-03-13T20:07:58.483Z,7.65
2023-03-13T20:10:26.853Z,7.60
2023-03-13T20:12:55.327Z,7.62
2023-03-13T20:15:24.069Z,7.60
2023-03-13T20:17:52.649Z,7.59
2023-03-13T20:20:21.323Z,7.58
2023-03-13T20:22:49.816Z,7.55
2023-03-13T20:25:18.329Z,7.52
2023-03-13T20:27:46.718Z,7.48
2023-03-13T20:30:15.717Z,7.44
2023-03-13T20:32:58.448Z,7.42
2023-03-13T20:35:30.656Z,7.36
2023-03-13T20:38:01.236Z,7.36
2023-03-13T20:40:29.637Z,7.32
2023-03-13T20:42:59.685Z,7.29
2023-03-13T20:45:29.660Z,7.28
2023-03-13T20:47:59.099Z,7.25
2023-03-13T20:50:27.806Z,7.22
2023-03-13T20:52:56.496Z,7.19
2023-03-13T20:55:24.899Z,7.16
2023-03-13T20:57:53.284Z,7.14
2023-03-13T21:00:23.497Z,7.12
2023-03-13T21:02:53.964Z,7.09
2023-03-13T21:05:22.659Z,7.11
2023-03-13T21:07:51.603Z,7.10
2023-03-13T21:10:20.026Z,7.06
2023-03-13T21:12:48.498Z,7.03
2023-03-13T21:15:17.081Z,7.03
2023-03-13T21:17:45.491Z,7.00
2023-03-13T21:20:14.154Z,6.95
2023-03-13T21:22:43.473Z,6.97
2023-03-13T21:25:12.546Z,6.92
2023-03-13T21:27:43.900Z,6.88
2023-03-13T21:30:15.540Z,6.86
2023-03-13T21:32:45.021Z,6.85
2023-03-13T21:35:13.985Z,6.88
2023-03-13T21:37:43.167Z,6.89
2023-03-13T21:40:12.327Z,6.84
2023-03-13T21:42:40.820Z,6.85
2023-03-13T21:45:10.180Z,6.84
2023-03-13T21:47:38.621Z,6.83
2023-03-13T21:50:10.185Z,6.82
2023-03-13T21:52:41.363Z,6.82
2023-03-13T21:55:13.085Z,6.83
2023-03-13T21:57:41.598Z,6.80
2023-03-13T22:00:14.215Z,6.79
2023-03-13T22:02:44.359Z,6.74
2023-03-13T22:05:12.954Z,6.76
2023-03-13T22:07:41.500Z,6.74
2023-03-13T22:10:10.457Z,6.67
2023-03-13T22:12:39.015Z,6.67
2023-03-13T22:15:08.164Z,6.68
2023-03-13T22:17:36.625Z,6.66
2023-03-13T22:20:06.651Z,6.67
2023-03-13T22:22:35.275Z,6.64
2023-03-13T22:25:03.866Z,6.62
2023-03-13T22:27:32.267Z,6.61
2023-03-13T22:30:01.796Z,6.61
2023-03-13T22:32:30.792Z,6.59
2023-03-13T22:34:59.303Z,6.57
2023-03-13T22:37:27.929Z,6.56
2023-03-13T22:39:56.477Z,6.54
2023-03-13T22:42:25.155Z,6.52
2023-03-13T22:44:55.518Z,6.49
2023-03-13T22:47:26.131Z,6.47
2023-03-13T22:49:54.693Z,6.46
2023-03-13T22:52:29.059Z,6.41
2023-03-13T22:54:58.793Z,6.38
2023-03-13T22:57:29.359Z,6.31
2023-03-13T22:59:59.426Z,6.28
2023-03-13T23:02:28.442Z,6.26
2023-03-13T23:04:58.735Z,6.24
2023-03-13T23:07:31.082Z,6.19
2023-03-13T23:09:59.653Z,6.17
2023-03-13T23:12:31.056Z,6.14
2023-03-13T23:15:02.508Z,6.10
2023-03-13T23:17:32.173Z,6.03
2023-03-13T23:20:10.150Z,6.04
2023-03-13T23:22:39.983Z,5.99
2023-03-13T23:25:08.769Z,5.96
2023-03-13T23:27:37.256Z,5.90
2023-03-13T23:30:07.360Z,5.86
2023-03-13T23:32:37.520Z,5.85
2023-03-13T23:35:06.617Z,5.82
2023-03-13T23:37:35.172Z,5.81
2023-03-13T23:40:05.472Z,5.76
2023-03-13T23:42:34.228Z,5.72
2023-03-13T23:45:02.768Z,5.66
2023-03-13T23:47:31.645Z,5.60
2023-03-13T23:50:00.086Z,5.60
2023-03-13T23:52:28.642Z,5.58
2023-03-13T23:54:57.281Z,5.56
2023-03-13T23:57:25.875Z,5.50
2023-03-13T23:59:54.904Z,5.46
